createdAt,value
2019-05-26T00:01:56.916Z,98853.27
2019-05-26T00:04:25.395Z,98848.95
2019-05-26T00:06:53.893Z,98849.63
2019-05-26T00:09:22.448Z,98841.44
2019-05-26T00:11:50.945Z,98840.23
2019-05-26T00:14:19.438Z,98840.93
2019-05-26T00:16:47.935Z,98842.78
2019-05-26T00:19:16.420Z,98837.34
2019-05-26T00:21:44.919Z,98840.08
2019-05-26T00:24:13.391Z,98849.42
2019-05-26T00:26:41.892Z,98843.64
2019-05-26T00:29:10.374Z,98837.45
2019-05-26T00:31:38.877Z,98842.53
2019-05-26T00:34:07.355Z,98839.91
2019-05-26T00:36:35.851Z,98828.97
2019-05-26T00:39:05.682Z,98822.38
2019-05-26T00:41:34.192Z,98821.86
2019-05-26T00:44:02.722Z,98826.08
2019-05-26T00:46:31.280Z,98827.66
2019-05-26T00:48:59.824Z,98836.14
2019-05-26T00:51:28.315Z,98827.70
2019-05-26T00:53:56.787Z,98840.08
2019-05-26T00:56:25.280Z,98842.70
2019-05-26T00:58:53.821Z,98831.80
2019-05-26T01:01:22.323Z,98834.45
2019-05-26T01:03:50.784Z,98828.02
2019-05-26T01:06:19.352Z,98826.59
2019-05-26T01:08:47.827Z,98828.08
2019-05-26T01:11:16.326Z,98831.55
2019-05-26T01:13:44.895Z,98822.34
2019-05-26T01:16:13.487Z,98818.29
2019-05-26T01:18:41.951Z,98829.47
2019-05-26T01:21:10.473Z,98825.83
2019-05-26T01:23:38.932Z,98830.20
2019-05-26T01:26:07.429Z,98829.43
2019-05-26T01:28:35.906Z,98826.35
2019-05-26T01:31:04.412Z,98824.96
2019-05-26T01:33:32.894Z,98824.70
2019-05-26T01:36:01.515Z,98817.55
2019-05-26T01:38:30.719Z,98818.71
2019-05-26T01:40:59.195Z,98820.61
2019-05-26T01:43:27.689Z,98815.89
2019-05-26T01:45:56.221Z,98820.78
2019-05-26T01:48:24.725Z,98819.67
2019-05-26T01:50:53.275Z,98814.59
2019-05-26T01:53:21.766Z,98816.31
2019-05-26T01:55:50.251Z,98817.69
2019-05-26T01:58:18.753Z,98821.51
2019-05-26T02:00:47.400Z,98819.80
2019-05-26T02:03:15.906Z,98815.19
2019-05-26T02:05:44.386Z,98816.16
2019-05-26T02:08:12.876Z,98818.37
2019-05-26T02:10:41.358Z,98821.16
2019-05-26T02:13:09.867Z,98823.84
2019-05-26T02:15:38.341Z,98826.69
2019-05-26T02:18:07.067Z,98832.25
2019-05-26T02:20:35.539Z,98827.87
2019-05-26T02:23:04.506Z,98837.75
2019-05-26T02:25:33.065Z,98838.12
2019-05-26T02:28:01.555Z,98833.06
2019-05-26T02:30:30.175Z,98832.09
2019-05-26T02:32:58.673Z,98833.52
2019-05-26T02:35:27.389Z,98836.34
2019-05-26T02:37:55.889Z,98846.91
2019-05-26T02:40:25.985Z,98840.77
2019-05-26T02:42:54.571Z,98845.99
2019-05-26T02:45:23.578Z,98848.02
2019-05-26T02:47:52.077Z,98852.25
2019-05-26T02:50:20.973Z,98850.60
2019-05-26T02:52:49.478Z,98855.05
2019-05-26T02:55:18.496Z,98850.23
2019-05-26T02:57:47.069Z,98845.13
2019-05-26T03:00:17.518Z,98839.23
2019-05-26T03:02:46.224Z,98834.59
2019-05-26T03:05:15.139Z,98834.37
2019-05-26T03:07:44.542Z,98834.66
2019-05-26T03:10:15.134Z,98832.47
2019-05-26T03:12:43.823Z,98834.09
2019-05-26T03:15:14.513Z,98832.25
2019-05-26T03:17:43.381Z,98834.20
2019-05-26T03:20:14.068Z,98833.49
2019-05-26T03:22:43.194Z,98836.61
2019-05-26T03:25:13.393Z,98831.57
2019-05-26T03:27:41.934Z,98824.86
2019-05-26T03:30:10.802Z,98826.45
2019-05-26T03:32:39.504Z,98822.94
2019-05-26T03:35:10.018Z,98822.65
2019-05-26T03:37:38.494Z,98817.39
2019-05-26T03:40:10.847Z,98812.84
2019-05-26T03:42:39.324Z,98818.84
2019-05-26T03:45:08.706Z,98819.72
2019-05-26T03:47:37.279Z,98817.43
2019-05-26T03:50:09.824Z,98821.94
2019-05-26T03:52:38.380Z,98823.73
2019-05-26T03:55:07.535Z,98825.39
2019-05-26T03:57:36.056Z,98832.35
2019-05-26T04:00:06.709Z,98826.45
2019-05-26T04:02:35.156Z,98825.44
2019-05-26T04:05:04.808Z,98823.55
2019-05-26T04:07:33.291Z,98823.34
2019-05-26T04:10:05.271Z,98827.35
2019-05-26T04:12:32.620Z,98829.61
2019-05-26T04:15:01.120Z,98827.03
2019-05-26T04:17:29.583Z,98828.42
2019-05-26T04:19:58.085Z,98825.39
2019-05-26T04:22:26.556Z,98826.03
2019-05-26T04:24:55.057Z,98823.15
2019-05-26T04:27:23.533Z,98813.41
2019-05-26T04:29:52.014Z,98820.32
2019-05-26T04:32:20.492Z,98818.88
2019-05-26T04:34:48.980Z,98819.34
2019-05-26T04:37:17.451Z,98818.23
2019-05-26T04:39:45.949Z,98822.27
2019-05-26T04:42:14.415Z,98813.34
2019-05-26T04:44:42.920Z,98816.16
2019-05-26T04:47:11.382Z,98813.55
2019-05-26T04:49:39.885Z,98745.93
2019-05-26T04:52:08.367Z,98809.80
2019-05-26T04:54:36.898Z,98811.58
2019-05-26T04:57:05.866Z,98808.64
2019-05-26T04:59:34.347Z,98807.92
2019-05-26T05:02:02.843Z,98804.76
2019-05-26T05:04:31.320Z,98810.73
2019-05-26T05:06:59.820Z,98805.70
2019-05-26T05:09:28.302Z,98804.16
2019-05-26T05:11:56.794Z,98806.44
2019-05-26T05:14:25.269Z,98805.66
2019-05-26T05:16:53.773Z,98801.66
2019-05-26T05:19:22.258Z,98801.59
2019-05-26T05:21:50.755Z,98802.86
2019-05-26T05:24:19.289Z,98802.52
2019-05-26T05:26:47.794Z,98798.23
2019-05-26T05:29:16.256Z,98797.64
2019-05-26T05:31:44.835Z,98793.41
2019-05-26T05:34:13.320Z,98797.54
2019-05-26T05:36:41.815Z,98795.25
2019-05-26T05:39:10.282Z,98800.69
2019-05-26T05:41:38.837Z,98802.55
2019-05-26T05:44:07.323Z,98796.07
2019-05-26T05:46:35.847Z,98805.97
2019-05-26T05:49:04.384Z,98805.20
2019-05-26T05:51:32.880Z,98802.66
2019-05-26T05:54:01.347Z,98808.45
2019-05-26T05:56:29.846Z,98816.08
2019-05-26T05:58:58.312Z,98804.53
2019-05-26T06:01:26.802Z,98811.20
2019-05-26T06:03:55.275Z,98813.66
2019-05-26T06:06:23.777Z,98817.03
2019-05-26T06:08:52.249Z,98819.09
2019-05-26T06:11:20.740Z,98822.22
2019-05-26T06:13:49.208Z,98826.50
2019-05-26T06:16:17.704Z,98820.61
2019-05-26T06:18:46.214Z,98826.45
2019-05-26T06:21:14.689Z,98821.46
2019-05-26T06:23:43.166Z,98828.48
2019-05-26T06:26:11.656Z,98830.82
2019-05-26T06:28:40.268Z,98816.77
2019-05-26T06:31:08.772Z,98819.11
2019-05-26T06:33:37.260Z,98815.86
2019-05-26T06:36:05.819Z,98820.29
2019-05-26T06:38:34.286Z,98821.34
2019-05-26T06:41:02.784Z,98820.56
2019-05-26T06:43:31.252Z,98822.03
2019-05-26T06:45:59.749Z,98825.20
2019-05-26T06:48:28.215Z,98826.09
2019-05-26T06:50:56.696Z,98828.97
2019-05-26T06:53:25.212Z,98825.83
2019-05-26T06:55:53.669Z,98819.00
2019-05-26T06:58:22.236Z,98815.48
2019-05-26T07:00:50.722Z,98816.97
2019-05-26T07:03:19.204Z,98815.11
2019-05-26T07:05:47.682Z,98817.80
2019-05-26T07:08:16.178Z,98812.48
2019-05-26T07:10:44.654Z,98808.98
2019-05-26T07:13:13.146Z,98813.96
2019-05-26T07:15:41.617Z,98810.38
2019-05-26T07:18:10.106Z,98797.70
2019-05-26T07:20:38.571Z,98803.44
2019-05-26T07:23:08.191Z,98804.84
2019-05-26T07:25:37.233Z,98796.60
2019-05-26T07:28:05.723Z,98801.53
2019-05-26T07:30:34.192Z,98804.62
2019-05-26T07:33:02.687Z,98805.91
2019-05-26T07:35:33.082Z,98795.20
2019-05-26T07:38:01.371Z,98804.64
2019-05-26T07:40:29.849Z,98805.20
2019-05-26T07:42:58.350Z,98811.11
2019-05-26T07:45:26.856Z,98808.35
2019-05-26T07:47:59.280Z,98805.14
2019-05-26T07:50:38.357Z,98808.12
2019-05-26T07:53:08.477Z,98800.69
2019-05-26T07:55:37.057Z,98798.03
2019-05-26T07:58:05.767Z,98797.58
2019-05-26T08:00:34.390Z,98796.27
2019-05-26T08:03:02.883Z,98805.41
2019-05-26T08:05:31.347Z,98798.13
2019-05-26T08:08:12.007Z,98790.19
2019-05-26T08:10:30.182Z,98792.14
2019-05-26T08:12:58.671Z,98787.40
2019-05-26T08:15:27.132Z,98793.02
2019-05-26T08:17:55.628Z,98788.52
2019-05-26T08:20:24.435Z,98785.31
2019-05-26T08:22:52.940Z,98782.39
2019-05-26T08:25:21.408Z,98784.83
2019-05-26T08:27:49.908Z,98778.19
2019-05-26T08:30:19.017Z,98776.02
2019-05-26T08:32:47.513Z,98772.55
2019-05-26T08:35:16.128Z,98776.28
2019-05-26T08:37:44.600Z,98769.13
2019-05-26T08:40:19.216Z,98765.70
2019-05-26T08:42:50.373Z,98758.81
2019-05-26T08:45:21.652Z,98760.11
2019-05-26T08:47:50.360Z,98757.45
2019-05-26T08:50:19.003Z,98757.73
2019-05-26T08:52:47.471Z,98752.14
2019-05-26T08:55:16.533Z,98760.92
2019-05-26T08:57:45.005Z,98751.61
2019-05-26T09:00:15.248Z,98752.41
2019-05-26T09:02:43.721Z,98754.28
2019-05-26T09:05:12.464Z,98753.44
2019-05-26T09:07:40.929Z,98751.48
2019-05-26T09:10:09.758Z,98749.25
2019-05-26T09:12:38.238Z,98745.06
2019-05-26T09:15:07.173Z,98744.28
2019-05-26T09:17:35.716Z,98737.19
2019-05-26T09:20:06.554Z,98734.82
2019-05-26T09:22:35.021Z,98727.44
2019-05-26T09:25:04.556Z,98726.83
2019-05-26T09:27:33.019Z,98726.22
2019-05-26T09:30:01.515Z,98726.80
2019-05-26T09:32:29.978Z,98721.22
2019-05-26T09:34:58.470Z,98716.27
2019-05-26T09:37:27.013Z,98712.93
2019-05-26T09:39:55.506Z,98708.00
2019-05-26T09:42:23.978Z,98706.66
2019-05-26T09:44:52.475Z,98713.18
2019-05-26T09:47:20.943Z,98702.27
2019-05-26T09:49:49.425Z,98708.94
2019-05-26T09:52:17.894Z,98708.76
2019-05-26T09:54:46.393Z,98706.70
2019-05-26T09:57:14.859Z,98701.80
2019-05-26T09:59:43.355Z,98699.68
2019-05-26T10:02:11.897Z,98698.34
2019-05-26T10:04:40.394Z,98693.95
2019-05-26T10:07:12.149Z,98697.09
2019-05-26T10:09:39.620Z,98685.33
2019-05-26T10:12:08.086Z,98685.82
2019-05-26T10:14:36.583Z,98690.11
2019-05-26T10:17:05.208Z,98686.23
2019-05-26T10:19:33.710Z,98677.64
2019-05-26T10:22:02.167Z,98682.88
2019-05-26T10:24:30.666Z,98675.02
2019-05-26T10:26:59.129Z,98671.16
2019-05-26T10:29:27.630Z,98670.52
2019-05-26T10:31:56.099Z,98674.30
2019-05-26T10:34:24.591Z,98669.84
2019-05-26T10:36:53.054Z,98679.02
2019-05-26T10:39:21.550Z,98671.45
2019-05-26T10:41:50.022Z,98673.94
2019-05-26T10:44:18.512Z,98676.66
2019-05-26T10:46:46.977Z,98676.20
2019-05-26T10:49:15.632Z,98667.64
2019-05-26T10:51:44.104Z,98674.21
2019-05-26T10:54:12.580Z,98667.46
2019-05-26T10:56:41.085Z,98660.35
2019-05-26T10:59:09.626Z,98663.55
2019-05-26T11:01:38.121Z,98660.03
2019-05-26T11:04:06.648Z,98664.20
2019-05-26T11:06:35.141Z,98660.37
2019-05-26T11:09:05.478Z,98658.16
2019-05-26T11:11:33.972Z,98654.77
2019-05-26T11:14:03.527Z,98652.60
2019-05-26T11:16:32.123Z,98642.38
2019-05-26T11:19:00.590Z,98637.80
2019-05-26T11:21:29.077Z,98639.23
2019-05-26T11:23:57.549Z,98641.41
2019-05-26T11:26:26.044Z,98635.64
2019-05-26T11:28:54.517Z,98634.45
2019-05-26T11:31:23.010Z,98623.14
2019-05-26T11:33:51.497Z,98626.47
2019-05-26T11:36:19.975Z,98622.13
2019-05-26T11:38:48.439Z,98623.52
2019-05-26T11:41:16.930Z,98612.09
2019-05-26T11:43:45.396Z,98610.75
2019-05-26T11:46:16.519Z,98603.36
2019-05-26T11:48:44.083Z,98599.38
2019-05-26T11:51:12.771Z,98600.58
2019-05-26T11:53:41.246Z,98595.98
2019-05-26T11:56:09.727Z,98588.11
2019-05-26T11:58:38.189Z,98591.16
2019-05-26T12:01:06.683Z,98588.97
2019-05-26T12:03:35.149Z,98587.34
2019-05-26T12:06:03.659Z,98587.81
2019-05-26T12:08:32.115Z,98588.18
2019-05-26T12:11:00.609Z,98579.74
2019-05-26T12:13:29.084Z,98569.76
2019-05-26T12:15:57.588Z,98574.01
2019-05-26T12:18:26.065Z,98570.02
2019-05-26T12:20:54.549Z,98571.09
2019-05-26T12:23:23.017Z,98566.84
2019-05-26T12:25:51.511Z,98561.64
2019-05-26T12:28:19.974Z,98565.66
2019-05-26T12:30:48.443Z,98561.78
2019-05-26T12:33:16.973Z,98555.06
2019-05-26T12:35:48.146Z,98547.02
2019-05-26T12:38:16.707Z,98541.52
2019-05-26T12:40:45.237Z,98549.41
2019-05-26T12:43:13.863Z,98553.39
2019-05-26T12:45:42.501Z,98542.23
2019-05-26T12:48:11.057Z,98537.39
2019-05-26T12:50:39.668Z,98530.28
2019-05-26T12:53:08.237Z,98540.58
2019-05-26T12:55:36.694Z,98533.42
2019-05-26T12:58:05.533Z,98526.77
2019-05-26T13:00:48.061Z,98526.77
2019-05-26T13:03:05.056Z,98522.75
2019-05-26T13:05:33.522Z,98521.17
2019-05-26T13:08:02.020Z,98528.90
2019-05-26T13:10:30.494Z,98533.88
2019-05-26T13:12:58.981Z,98524.18
2019-05-26T13:15:27.461Z,98517.81
2019-05-26T13:17:55.962Z,98514.72
2019-05-26T13:20:24.766Z,98525.86
2019-05-26T13:22:53.255Z,98524.08
2019-05-26T13:25:21.788Z,98520.13
2019-05-26T13:27:50.280Z,98519.02
2019-05-26T13:30:22.045Z,98519.04
2019-05-26T13:32:50.540Z,98518.59
2019-05-26T13:35:19.241Z,98506.08
2019-05-26T13:37:47.736Z,98504.97
2019-05-26T13:40:16.543Z,98503.22
2019-05-26T13:42:45.038Z,98497.71
2019-05-26T13:45:22.432Z,98506.42
2019-05-26T13:47:44.658Z,98501.61
2019-05-26T13:50:15.069Z,98500.94
2019-05-26T13:52:43.563Z,98489.89
2019-05-26T13:55:12.278Z,98490.01
2019-05-26T13:57:40.780Z,98494.63
2019-05-26T14:00:11.662Z,98495.27
2019-05-26T14:02:40.309Z,98488.52
2019-05-26T14:05:09.099Z,98493.88
2019-05-26T14:07:37.666Z,98487.67
2019-05-26T14:10:07.271Z,98495.08
2019-05-26T14:12:35.766Z,98494.01
2019-05-26T14:15:09.031Z,98489.19
2019-05-26T14:17:38.801Z,98490.00
2019-05-26T14:20:07.802Z,98495.05
2019-05-26T14:22:36.301Z,98484.10
2019-05-26T14:25:06.309Z,98489.72
2019-05-26T14:27:34.804Z,98482.66
2019-05-26T14:30:04.949Z,98484.85
2019-05-26T14:32:33.440Z,98479.66
2019-05-26T14:35:01.926Z,98480.91
2019-05-26T14:37:30.422Z,98478.64
2019-05-26T14:39:58.884Z,98484.75
2019-05-26T14:42:27.347Z,98476.42
2019-05-26T14:44:55.844Z,98480.72
2019-05-26T14:47:24.320Z,98481.61
2019-05-26T14:49:52.882Z,98470.95
2019-05-26T14:52:21.345Z,98468.26
2019-05-26T14:54:49.847Z,98466.53
2019-05-26T14:57:18.317Z,98474.34
2019-05-26T14:59:46.819Z,98464.45
2019-05-26T15:02:15.360Z,98467.84
2019-05-26T15:04:43.867Z,98469.97
2019-05-26T15:07:12.318Z,98462.61
2019-05-26T15:09:40.810Z,98466.50
2019-05-26T15:12:09.273Z,98461.39
2019-05-26T15:14:37.766Z,98457.05
2019-05-26T15:17:06.236Z,98454.70
2019-05-26T15:19:34.742Z,98463.44
2019-05-26T15:22:03.190Z,98461.16
2019-05-26T15:24:31.677Z,98464.94
2019-05-26T15:27:00.149Z,98456.13
2019-05-26T15:29:28.636Z,98456.17
2019-05-26T15:31:57.178Z,98457.73
2019-05-26T15:34:25.674Z,98466.15
2019-05-26T15:36:54.151Z,98450.68
2019-05-26T15:39:22.645Z,98453.64
2019-05-26T15:41:51.115Z,98454.58
2019-05-26T15:44:19.604Z,98450.71
2019-05-26T15:46:48.069Z,98457.80
2019-05-26T15:49:16.560Z,98448.00
2019-05-26T15:51:45.031Z,98449.13
2019-05-26T15:54:13.522Z,98455.45
2019-05-26T15:56:42.008Z,98453.63
2019-05-26T15:59:10.474Z,98451.79
2019-05-26T16:01:38.998Z,98449.27
2019-05-26T16:04:07.491Z,98443.02
2019-05-26T16:06:35.967Z,98441.72
2019-05-26T16:09:06.493Z,98438.74
2019-05-26T16:11:34.962Z,98439.99
2019-05-26T16:14:03.514Z,98437.19
2019-05-26T16:16:40.845Z,98447.06
2019-05-26T16:19:02.217Z,98438.96
2019-05-26T16:21:30.719Z,98431.89
2019-05-26T16:23:59.191Z,98433.95
2019-05-26T16:26:27.686Z,98436.05
2019-05-26T16:28:56.200Z,98435.17
2019-05-26T16:31:24.667Z,98442.17
2019-05-26T16:33:53.130Z,98432.13
2019-05-26T16:36:21.807Z,98435.34
2019-05-26T16:38:50.270Z,98429.72
2019-05-26T16:41:18.775Z,98428.04
2019-05-26T16:43:47.329Z,98425.56
2019-05-26T16:46:15.811Z,98425.25
2019-05-26T16:48:44.269Z,98419.16
2019-05-26T16:51:12.774Z,98423.96
2019-05-26T16:53:41.238Z,98428.05
2019-05-26T16:56:09.729Z,98426.25
2019-05-26T16:58:38.197Z,98421.77
2019-05-26T17:01:06.694Z,98418.21
2019-05-26T17:03:35.235Z,98419.05
2019-05-26T17:06:07.874Z,98419.07
2019-05-26T17:08:34.001Z,98420.69
2019-05-26T17:11:02.566Z,98422.47
2019-05-26T17:13:33.120Z,98418.52
2019-05-26T17:16:01.256Z,98420.91
2019-05-26T17:18:29.725Z,98417.66
2019-05-26T17:20:58.213Z,98422.86
2019-05-26T17:23:26.672Z,98421.52
2019-05-26T17:25:55.169Z,98429.81
2019-05-26T17:28:23.640Z,98426.73
2019-05-26T17:30:52.136Z,98425.50
2019-05-26T17:33:20.595Z,98430.05
2019-05-26T17:35:49.120Z,98431.08
2019-05-26T17:38:17.594Z,98422.14
2019-05-26T17:40:46.086Z,98420.77
2019-05-26T17:43:14.547Z,98420.27
2019-05-26T17:45:43.037Z,98424.56
2019-05-26T17:48:11.500Z,98422.86
2019-05-26T17:50:39.997Z,98425.13
2019-05-26T17:53:08.473Z,98422.78
2019-05-26T17:55:36.972Z,98421.36
2019-05-26T17:58:05.511Z,98414.13
2019-05-26T18:00:34.017Z,98413.76
2019-05-26T18:03:02.491Z,98412.92
2019-05-26T18:05:31.053Z,98413.51
2019-05-26T18:07:59.525Z,98407.04
2019-05-26T18:10:28.185Z,98408.55
2019-05-26T18:12:56.652Z,98407.47
2019-05-26T18:15:25.220Z,98412.22
2019-05-26T18:17:53.686Z,98410.95
2019-05-26T18:20:22.227Z,98412.83
2019-05-26T18:22:50.843Z,98402.64
2019-05-26T18:25:19.535Z,98399.64
2019-05-26T18:27:48.033Z,98403.78
2019-05-26T18:30:17.746Z,98398.64
2019-05-26T18:32:46.232Z,98386.65
2019-05-26T18:35:14.777Z,98397.70
2019-05-26T18:37:43.266Z,98397.46
2019-05-26T18:40:12.104Z,98393.67
2019-05-26T18:42:40.611Z,98386.84
2019-05-26T18:45:09.609Z,98393.70
2019-05-26T18:47:38.090Z,98391.23
2019-05-26T18:50:07.708Z,98393.80
2019-05-26T18:52:36.197Z,98395.88
2019-05-26T18:55:05.639Z,98394.52
2019-05-26T18:57:34.195Z,98399.72
2019-05-26T19:00:03.222Z,98399.03
2019-05-26T19:02:31.711Z,98391.18
2019-05-26T19:05:00.175Z,98395.27
2019-05-26T19:07:28.662Z,98393.78
2019-05-26T19:09:57.151Z,98394.91
2019-05-26T19:12:25.609Z,98403.72
2019-05-26T19:14:54.076Z,98407.75
2019-05-26T19:17:22.566Z,98406.45
2019-05-26T19:19:51.110Z,98412.02
2019-05-26T19:22:19.608Z,98402.22
2019-05-26T19:24:48.080Z,98408.31
2019-05-26T19:27:16.575Z,98409.64
2019-05-26T19:29:45.037Z,98402.70
2019-05-26T19:32:13.533Z,98398.17
2019-05-26T19:34:41.994Z,98399.23
2019-05-26T19:37:10.493Z,98404.48
2019-05-26T19:39:38.961Z,98399.44
2019-05-26T19:42:07.498Z,98403.95
2019-05-26T19:44:35.935Z,98406.55
2019-05-26T19:47:04.574Z,98405.20
2019-05-26T19:49:33.039Z,98402.23
2019-05-26T19:52:01.582Z,98404.84
2019-05-26T19:54:30.208Z,98402.69
2019-05-26T19:56:58.822Z,98397.32
2019-05-26T19:59:27.286Z,98399.91
2019-05-26T20:01:55.849Z,98397.75
2019-05-26T20:04:24.469Z,98393.77
2019-05-26T20:06:52.943Z,98398.27
2019-05-26T20:09:21.444Z,98391.59
2019-05-26T20:11:49.901Z,98393.50
2019-05-26T20:14:18.394Z,98391.20
2019-05-26T20:16:46.862Z,98389.56
2019-05-26T20:19:15.422Z,98390.55
2019-05-26T20:21:43.895Z,98390.75
2019-05-26T20:24:12.383Z,98393.87
2019-05-26T20:26:40.853Z,98386.76
2019-05-26T20:29:09.340Z,98387.78
2019-05-26T20:31:37.810Z,98387.47
2019-05-26T20:34:06.324Z,98384.86
2019-05-26T20:36:34.767Z,98381.17
2019-05-26T20:39:03.338Z,98380.59
2019-05-26T20:41:31.799Z,98382.05
2019-05-26T20:44:00.295Z,98384.38
2019-05-26T20:46:28.761Z,98388.88
2019-05-26T20:48:57.261Z,98384.13
2019-05-26T20:51:25.734Z,98385.33
2019-05-26T20:53:54.226Z,98377.47
2019-05-26T20:56:22.699Z,98386.16
2019-05-26T20:58:51.192Z,98377.16
2019-05-26T21:01:19.667Z,98376.89
2019-05-26T21:03:48.157Z,98377.03
2019-05-26T21:06:16.627Z,98382.05
2019-05-26T21:08:45.117Z,98376.89
2019-05-26T21:11:13.577Z,98375.41
2019-05-26T21:13:42.065Z,98377.45
2019-05-26T21:16:10.527Z,98376.75
2019-05-26T21:18:39.020Z,98370.41
2019-05-26T21:21:07.489Z,98370.75
2019-05-26T21:23:35.971Z,98373.44
2019-05-26T21:26:04.444Z,98370.30
2019-05-26T21:28:32.936Z,98368.70
2019-05-26T21:31:01.396Z,98369.24
2019-05-26T21:33:29.891Z,98365.55
2019-05-26T21:35:58.434Z,98369.05
2019-05-26T21:38:26.902Z,98371.48
2019-05-26T21:40:55.405Z,98368.59
2019-05-26T21:43:23.890Z,98361.71
2019-05-26T21:45:52.396Z,98362.33
2019-05-26T21:48:20.940Z,98363.30
2019-05-26T21:50:49.438Z,98358.41
2019-05-26T21:53:17.914Z,98358.41
2019-05-26T21:55:46.399Z,98360.58
2019-05-26T21:58:14.940Z,98358.53
2019-05-26T22:00:46.199Z,98358.26
2019-05-26T22:03:14.631Z,98356.97
2019-05-26T22:05:43.124Z,98358.80
2019-05-26T22:08:11.605Z,98352.77
2019-05-26T22:10:40.097Z,98351.49
2019-05-26T22:13:08.559Z,98349.69
2019-05-26T22:15:37.054Z,98351.54
2019-05-26T22:18:05.593Z,98347.09
2019-05-26T22:20:34.100Z,98347.91
2019-05-26T22:23:02.549Z,98350.78
2019-05-26T22:25:31.039Z,98346.04
2019-05-26T22:27:59.514Z,98340.88
2019-05-26T22:30:28.014Z,98345.19
2019-05-26T22:32:56.476Z,98344.59
2019-05-26T22:35:24.968Z,98349.05
2019-05-26T22:37:53.433Z,98338.80
2019-05-26T22:40:21.988Z,98333.30
2019-05-26T22:42:50.462Z,98333.85
2019-05-26T22:45:19.294Z,98328.63
2019-05-26T22:47:47.760Z,98327.64
2019-05-26T22:50:16.400Z,98334.30
2019-05-26T22:52:44.859Z,98326.50
2019-05-26T22:55:13.524Z,98330.79
2019-05-26T22:57:41.991Z,98339.04
2019-05-26T23:00:11.726Z,98330.30
2019-05-26T23:02:40.474Z,98326.60
2019-05-26T23:05:09.619Z,98330.61
2019-05-26T23:07:38.075Z,98327.72
2019-05-26T23:10:09.579Z,98328.48
2019-05-26T23:12:38.111Z,98330.92
2019-05-26T23:15:10.377Z,98321.91
2019-05-26T23:17:39.153Z,98325.84
2019-05-26T23:20:09.165Z,98329.04
2019-05-26T23:22:37.638Z,98326.38
2019-05-26T23:25:07.365Z,98324.77
2019-05-26T23:27:35.849Z,98316.55
2019-05-26T23:30:06.377Z,98321.30
2019-05-26T23:32:34.845Z,98321.53
2019-05-26T23:35:04.217Z,98314.66
2019-05-26T23:37:32.683Z,98312.34
2019-05-26T23:40:01.157Z,98314.98
2019-05-26T23:42:29.660Z,98309.70
2019-05-26T23:44:58.131Z,98310.47
2019-05-26T23:47:26.623Z,98307.00
2019-05-26T23:49:55.096Z,98308.33
2019-05-26T23:52:23.585Z,98303.34
2019-05-26T23:54:52.058Z,98302.28
2019-05-26T23:57:20.546Z,98305.99
2019-05-26T23:59:49.086Z,98301.71
